Time,TemperatureF,DewpointF,PressureIn,WindDirection,WindDirectionDegrees,WindSpeedMPH,WindSpeedGustMPH,Humidity,HourlyPrecipIn,Conditions,Clouds,dailyrainin,SoftwareType,DateUTC
2013-10-17 00:02:00,-999.0,-99.9,-100.00,ENE,61,1.0,1.0,-999,-99.99,,,-99.99,,2013-10-17 08:02:00,
2013-10-17 00:12:00,-999.0,-99.9,-100.00,ENE,78,2.0,2.0,-999,-99.99,,,-99.99,,2013-10-17 08:12:00,
2013-10-17 00:22:00,-999.0,-99.9,-100.00,WNW,285,3.0,3.0,-999,-99.99,,,-99.99,,2013-10-17 08:22:00,
2013-10-17 00:32:00,-999.0,-99.9,-100.00,WNW,282,3.0,3.0,-999,-99.99,,,-99.99,,2013-10-17 08:32:00,
2013-10-17 00:42:00,-999.0,-99.9,-100.00,WNW,292,2.0,3.0,-999,-99.99,,,-99.99,,2013-10-17 08:42:00,
2013-10-17 00:52:00,-999.0,-99.9,-100.00,NNW,345,1.0,-1.0,-999,-99.99,,,-99.99,,2013-10-17 08:52:00,
2013-10-17 01:02:00,-999.0,-99.9,-100.00,North,359,1.0,1.0,-999,-99.99,,,-99.99,,2013-10-17 09:02:00,
2013-10-17 01:11:00,-999.0,-99.9,-100.00,ESE,116,1.0,1.0,-999,-99.99,,,-99.99,,2013-10-17 09:11:00,
2013-10-17 01:22:00,-999.0,-99.9,-100.00,West,273,2.0,2.0,-999,-99.99,,,-99.99,,2013-10-17 09:22:00,
2013-10-17 01:33:00,-999.0,-99.9,-100.00,SE,133,1.0,1.0,-999,-99.99,,,-99.99,,2013-10-17 09:33:00,
2013-10-17 01:43:00,-999.0,-99.9,-100.00,ESE,119,1.0,1.0,-999,-99.99,,,-99.99,,2013-10-17 09:43:00,
2013-10-17 01:53:00,-999.0,-99.9,-100.00,ENE,69,0.0,-1.0,-999,-99.99,,,-99.99,,2013-10-17 09:53:00,
2013-10-17 02:03:00,-999.0,-99.9,-100.00,West,276,3.0,3.0,-999,-99.99,,,-99.99,,2013-10-17 10:03:00,
2013-10-17 02:12:00,-999.0,-99.9,-100.00,SW,225,2.0,2.0,-999,-99.99,,,-99.99,,2013-10-17 10:12:00,
2013-10-17 02:23:00,-999.0,-99.9,-100.00,West,260,2.0,2.0,-999,-99.99,,,-99.99,,2013-10-17 10:23:00,
2013-10-17 02:33:00,-999.0,-99.9,-100.00,West,272,2.0,2.0,-999,-99.99,,,-99.99,,2013-10-17 10:33:00,
2013-10-17 02:42:00,-999.0,-99.9,-100.00,West,271,2.0,2.0,-999,-99.99,,,-99.99,,2013-10-17 10:42:00,
2013-10-17 02:53:00,-999.0,-99.9,-100.00,North,2,0.0,1.0,-999,-99.99,,,-99.99,,2013-10-17 10:53:00,
2013-10-17 03:03:00,-999.0,-99.9,-100.00,East,93,1.0,1.0,-999,-99.99,,,-99.99,,2013-10-17 11:03:00,
2013-10-17 03:12:00,-999.0,-99.9,-100.00,SW,229,0.0,1.0,-999,-99.99,,,-99.99,,2013-10-17 11:12:00,
2013-10-17 03:22:00,-999.0,-99.9,-100.00,WSW,244,0.0,1.0,-999,-99.99,,,-99.99,,2013-10-17 11:22:00,
2013-10-17 03:33:00,-999.0,-99.9,-100.00,NNW,344,0.0,1.0,-999,-99.99,,,-99.99,,2013-10-17 11:33:00,
2013-10-17 03:42:00,-999.0,-99.9,-100.00,NNW,345,1.0,1.0,-999,-99.99,,,-99.99,,2013-10-17 11:42:00,
2013-10-17 03:52:00,-999.0,-99.9,-100.00,SSE,159,1.0,1.0,-999,-99.99,,,-99.99,,2013-10-17 11:52:00,
2013-10-17 04:02:00,-999.0,-99.9,-100.00,ESE,114,1.0,1.0,-999,-99.99,,,-99.99,,2013-10-17 12:02:00,
2013-10-17 04:12:00,-999.0,-99.9,-100.00,ENE,71,0.0,1.0,-999,-99.99,,,-99.99,,2013-10-17 12:12:00,
2013-10-17 04:22:00,-999.0,-99.9,-100.00,WSW,243,0.0,0.0,-999,-99.99,,,-99.99,,2013-10-17 12:22:00,
2013-10-17 04:32:00,-999.0,-99.9,-100.00,East,87,1.0,2.0,-999,-99.99,,,-99.99,,2013-10-17 12:32:00,
2013-10-17 04:42:00,-999.0,-99.9,-100.00,ENE,62,2.0,2.0,-999,-99.99,,,-99.99,,2013-10-17 12:42:00,
2013-10-17 04:52:00,-999.0,-99.9,-100.00,ENE,71,3.0,3.0,-999,-99.99,,,-99.99,,2013-10-17 12:52:00,
2013-10-17 05:02:00,-999.0,-99.9,-100.00,ENE,64,2.0,3.0,-999,-99.99,,,-99.99,,2013-10-17 13:02:00,
2013-10-17 05:11:00,-999.0,-99.9,-100.00,ENE,64,1.0,2.0,-999,-99.99,,,-99.99,,2013-10-17 13:11:00,
2013-10-17 05:22:00,-999.0,-99.9,-100.00,ESE,118,1.0,1.0,-999,-99.99,,,-99.99,,2013-10-17 13:22:00,
2013-10-17 05:33:00,-999.0,-99.9,-100.00,SE,129,1.0,2.0,-999,-99.99,,,-99.99,,2013-10-17 13:33:00,
2013-10-17 05:42:00,-999.0,-99.9,-100.00,SSE,165,1.0,2.0,-999,-99.99,,,-99.99,,2013-10-17 13:42:00,
2013-10-17 05:52:00,-999.0,-99.9,-100.00,SW,235,1.0,1.0,-999,-99.99,,,-99.99,,2013-10-17 13:52:00,
2013-10-17 06:02:00,-999.0,-99.9,-100.00,NW,317,1.0,1.0,-999,-99.99,,,-99.99,,2013-10-17 14:02:00,
2013-10-17 06:11:00,-999.0,-99.9,-100.00,NNW,329,1.0,2.0,-999,-99.99,,,-99.99,,2013-10-17 14:11:00,
2013-10-17 06:22:00,-999.0,-99.9,-100.00,ENE,68,1.0,-1.0,-999,-99.99,,,-99.99,,2013-10-17 14:22:00,
2013-10-17 06:32:00,-999.0,-99.9,-100.00,NNW,333,1.0,1.0,-999,-99.99,,,-99.99,,2013-10-17 14:32:00,
2013-10-17 06:42:00,-999.0,-99.9,-100.00,North,3,0.0,1.0,-999,-99.99,,,-99.99,,2013-10-17 14:42:00,
2013-10-17 06:52:00,-999.0,-99.9,-100.00,NNE,31,1.0,1.0,-999,-99.99,,,-99.99,,2013-10-17 14:52:00,
2013-10-17 07:02:00,-999.0,-99.9,-100.00,WSW,242,1.0,1.0,-999,-99.99,,,-99.99,,2013-10-17 15:02:00,
2013-10-17 07:11:00,-999.0,-99.9,-100.00,SE,125,2.0,2.0,-999,-99.99,,,-99.99,,2013-10-17 15:11:00,
2013-10-17 07:22:00,-999.0,-99.9,-100.00,ESE,108,3.0,4.0,-999,-99.99,,,-99.99,,2013-10-17 15:22:00,
2013-10-17 07:33:00,-999.0,-99.9,-100.00,ESE,107,2.0,3.0,-999,-99.99,,,-99.99,,2013-10-17 15:33:00,
2013-10-17 07:43:00,-999.0,-99.9,-100.00,ESE,103,3.0,3.0,-999,-99.99,,,-99.99,,2013-10-17 15:43:00,
2013-10-17 07:54:00,-999.0,-99.9,-100.00,East,96,3.0,3.0,-999,-99.99,,,-99.99,,2013-10-17 15:54:00,
2013-10-17 08:04:00,-999.0,-99.9,-100.00,SE,137,2.0,3.0,-999,-99.99,,,-99.99,,2013-10-17 16:04:00,
2013-10-17 08:13:00,-999.0,-99.9,-100.00,SE,132,2.0,3.0,-999,-99.99,,,-99.99,,2013-10-17 16:13:00,
2013-10-17 08:23:00,-999.0,-99.9,-100.00,ESE,104,2.0,3.0,-999,-99.99,,,-99.99,,2013-10-17 16:23:00,
2013-10-17 08:33:00,-999.0,-99.9,-100.00,SSW,198,2.0,2.0,-999,-99.99,,,-99.99,,2013-10-17 16:33:00,
2013-10-17 08:43:00,-999.0,-99.9,-100.00,South,172,2.0,2.0,-999,-99.99,,,-99.99,,2013-10-17 16:43:00,
2013-10-17 08:54:00,-999.0,-99.9,-100.00,ENE,64,2.0,2.0,-999,-99.99,,,-99.99,,2013-10-17 16:54:00,
2013-10-17 09:02:00,-999.0,-99.9,-100.00,SSE,165,0.0,1.0,-999,-99.99,,,-99.99,,2013-10-17 17:02:00,
2013-10-17 09:12:00,-999.0,-99.9,-100.00,SSE,160,2.0,2.0,-999,-99.99,,,-99.99,,2013-10-17 17:12:00,
2013-10-17 09:22:00,-999.0,-99.9,-100.00,East,89,1.0,1.0,-999,-99.99,,,-99.99,,2013-10-17 17:22:00,
2013-10-17 09:33:00,-999.0,-99.9,-100.00,SE,134,2.0,2.0,-999,-99.99,,,-99.99,,2013-10-17 17:33:00,
2013-10-17 09:42:00,-999.0,-99.9,-100.00,West,279,1.0,2.0,-999,-99.99,,,-99.99,,2013-10-17 17:42:00,
2013-10-17 09:53:00,-999.0,-99.9,-100.00,SW,232,1.0,-1.0,-999,-99.99,,,-99.99,,2013-10-17 17:53:00,
2013-10-17 10:02:00,-999.0,-99.9,-100.00,NNW,331,1.0,1.0,-999,-99.99,,,-99.99,,2013-10-17 18:02:00,
2013-10-17 10:12:00,-999.0,-99.9,-100.00,NNW,340,1.0,2.0,-999,-99.99,,,-99.99,,2013-10-17 18:12:00,
2013-10-17 10:22:00,-999.0,-99.9,-100.00,NNE,31,2.0,4.0,-999,-99.99,,,-99.99,,2013-10-17 18:22:00,
2013-10-17 10:32:00,-999.0,-99.9,-100.00,NE,49,4.0,4.0,-999,-99.99,,,-99.99,,2013-10-17 18:32:00,
2013-10-17 10:42:00,-999.0,-99.9,-100.00,NNE,22,2.0,3.0,-999,-99.99,,,-99.99,,2013-10-17 18:42:00,
2013-10-17 10:52:00,-999.0,-99.9,-100.00,West,269,1.0,1.0,-999,-99.99,,,-99.99,,2013-10-17 18:52:00,
2013-10-17 11:02:00,-999.0,-99.9,-100.00,ENE,72,1.0,1.0,-999,-99.99,,,-99.99,,2013-10-17 19:02:00,
2013-10-17 11:12:00,-999.0,-99.9,-100.00,NE,55,4.0,6.0,-999,-99.99,,,-99.99,,2013-10-17 19:12:00,
2013-10-17 11:22:00,-999.0,-99.9,-100.00,ENE,66,6.0,6.0,-999,-99.99,,,-99.99,,2013-10-17 19:22:00,
2013-10-17 11:32:00,-999.0,-99.9,-100.00,ENE,65,4.0,5.0,-999,-99.99,,,-99.99,,2013-10-17 19:32:00,
2013-10-17 11:42:00,-999.0,-99.9,-100.00,NE,44,3.0,3.0,-999,-99.99,,,-99.99,,2013-10-17 19:42:00,
2013-10-17 11:53:00,-999.0,-99.9,-100.00,ENE,57,3.0,3.0,-999,-99.99,,,-99.99,,2013-10-17 19:53:00,
2013-10-17 12:02:00,-999.0,-99.9,-100.00,ENE,78,2.0,3.0,-999,-99.99,,,-99.99,,2013-10-17 20:02:00,
2013-10-17 12:12:00,-999.0,-99.9,-100.00,East,91,2.0,2.0,-999,-99.99,,,-99.99,,2013-10-17 20:12:00,
2013-10-17 12:22:00,-999.0,-99.9,-100.00,East,97,2.0,3.0,-999,-99.99,,,-99.99,,2013-10-17 20:22:00,
2013-10-17 12:32:00,-999.0,-99.9,-100.00,ENE,68,2.0,3.0,-999,-99.99,,,-99.99,,2013-10-17 20:32:00,
2013-10-17 12:42:00,-999.0,-99.9,-100.00,ENE,74,2.0,2.0,-999,-99.99,,,-99.99,,2013-10-17 20:42:00,
2013-10-17 12:52:00,-999.0,-99.9,-100.00,ESE,105,1.0,3.0,-999,-99.99,,,-99.99,,2013-10-17 20:52:00,
2013-10-17 13:02:00,-999.0,-99.9,-100.00,South,190,1.0,3.0,-999,-99.99,,,-99.99,,2013-10-17 21:02:00,
2013-10-17 13:12:00,-999.0,-99.9,-100.00,South,174,2.0,2.0,-999,-99.99,,,-99.99,,2013-10-17 21:12:00,
2013-10-17 13:22:00,-999.0,-99.9,-100.00,South,179,2.0,2.0,-999,-99.99,,,-99.99,,2013-10-17 21:22:00,
2013-10-17 13:34:00,-999.0,-99.9,-100.00,ESE,120,3.0,3.0,-999,-99.99,,,-99.99,,2013-10-17 21:34:00,
2013-10-17 13:44:00,-999.0,-99.9,-100.00,ESE,107,4.0,4.0,-999,-99.99,,,-99.99,,2013-10-17 21:44:00,
2013-10-17 13:54:00,-999.0,-99.9,-100.00,ENE,62,1.0,2.0,-999,-99.99,,,-99.99,,2013-10-17 21:54:00,
2013-10-17 14:04:00,-999.0,-99.9,-100.00,SSE,158,2.0,2.0,-999,-99.99,,,-99.99,,2013-10-17 22:04:00,
2013-10-17 14:14:00,-999.0,-99.9,-100.00,South,176,2.0,2.0,-999,-99.99,,,-99.99,,2013-10-17 22:14:00,
2013-10-17 14:24:00,-999.0,-99.9,-100.00,SSW,212,2.0,3.0,-999,-99.99,,,-99.99,,2013-10-17 22:24:00,
2013-10-17 14:33:00,-999.0,-99.9,-100.00,South,189,3.0,-1.0,-999,-99.99,,,-99.99,,2013-10-17 22:33:00,
2013-10-17 14:43:00,-999.0,-99.9,-100.00,WSW,242,3.0,3.0,-999,-99.99,,,-99.99,,2013-10-17 22:43:00,
2013-10-17 14:53:00,-999.0,-99.9,-100.00,South,182,1.0,1.0,-999,-99.99,,,-99.99,,2013-10-17 22:53:00,
2013-10-17 15:03:00,-999.0,-99.9,-100.00,NNW,346,1.0,-1.0,-999,-99.99,,,-99.99,,2013-10-17 23:03:00,
2013-10-17 15:13:00,-999.0,-99.9,-100.00,SSE,162,1.0,1.0,-999,-99.99,,,-99.99,,2013-10-17 23:13:00,
2013-10-17 15:23:00,-999.0,-99.9,-100.00,NE,56,2.0,2.0,-999,-99.99,,,-99.99,,2013-10-17 23:23:00,
2013-10-17 15:34:00,-999.0,-99.9,-100.00,North,349,1.0,1.0,-999,-99.99,,,-99.99,,2013-10-17 23:34:00,
2013-10-17 15:43:00,-999.0,-99.9,-100.00,NE,52,2.0,2.0,-999,-99.99,,,-99.99,,2013-10-17 23:43:00,
2013-10-17 15:53:00,-999.0,-99.9,-100.00,NE,37,2.0,2.0,-999,-99.99,,,-99.99,,2013-10-17 23:53:00,
2013-10-17 16:02:00,-999.0,-99.9,-100.00,ENE,63,4.0,4.0,-999,-99.99,,,-99.99,,2013-10-18 00:02:00,
2013-10-17 16:12:00,-999.0,-99.9,-100.00,NE,56,5.0,5.0,-999,-99.99,,,-99.99,,2013-10-18 00:12:00,
2013-10-17 16:22:00,-999.0,-99.9,-100.00,ENE,57,2.0,4.0,-999,-99.99,,,-99.99,,2013-10-18 00:22:00,
2013-10-17 16:33:00,-999.0,-99.9,-100.00,NE,53,3.0,3.0,-999,-99.99,,,-99.99,,2013-10-18 00:33:00,
2013-10-17 16:42:00,-999.0,-99.9,-100.00,WSW,247,0.0,1.0,-999,-99.99,,,-99.99,,2013-10-18 00:42:00,
2013-10-17 16:53:00,-999.0,-99.9,-100.00,West,260,2.0,2.0,-999,-99.99,,,-99.99,,2013-10-18 00:53:00,
2013-10-17 17:02:00,-999.0,-99.9,-100.00,WSW,252,2.0,3.0,-999,-99.99,,,-99.99,,2013-10-18 01:02:00,
2013-10-17 17:12:00,-999.0,-99.9,-100.00,NNW,336,1.0,1.0,-999,-99.99,,,-99.99,,2013-10-18 01:12:00,
2013-10-17 17:22:00,-999.0,-99.9,-100.00,ENE,58,3.0,-1.0,-999,-99.99,,,-99.99,,2013-10-18 01:22:00,
2013-10-17 17:32:00,-999.0,-99.9,-100.00,NE,56,3.0,-1.0,-999,-99.99,,,-99.99,,2013-10-18 01:32:00,
2013-10-17 17:42:00,-999.0,-99.9,-100.00,East,81,2.0,3.0,-999,-99.99,,,-99.99,,2013-10-18 01:42:00,
2013-10-17 17:53:00,-999.0,-99.9,-100.00,ENE,63,2.0,3.0,-999,-99.99,,,-99.99,,2013-10-18 01:53:00,
2013-10-17 18:02:00,-999.0,-99.9,-100.00,ESE,104,2.0,3.0,-999,-99.99,,,-99.99,,2013-10-18 02:02:00,
2013-10-17 18:12:00,-999.0,-99.9,-100.00,East,99,3.0,4.0,-999,-99.99,,,-99.99,,2013-10-18 02:12:00,
2013-10-17 18:22:00,-999.0,-99.9,-100.00,ESE,111,4.0,4.0,-999,-99.99,,,-99.99,,2013-10-18 02:22:00,
2013-10-17 18:33:00,-999.0,-99.9,-100.00,ESE,106,4.0,4.0,-999,-99.99,,,-99.99,,2013-10-18 02:33:00,
2013-10-17 18:42:00,-999.0,-99.9,-100.00,East,83,6.0,6.0,-999,-99.99,,,-99.99,,2013-10-18 02:42:00,
2013-10-17 18:52:00,-999.0,-99.9,-100.00,East,90,6.0,6.0,-999,-99.99,,,-99.99,,2013-10-18 02:52:00,
2013-10-17 19:03:00,-999.0,-99.9,-100.00,East,87,5.0,6.0,-999,-99.99,,,-99.99,,2013-10-18 03:03:00,
2013-10-17 19:11:00,-999.0,-99.9,-100.00,East,101,4.0,4.0,-999,-99.99,,,-99.99,,2013-10-18 03:11:00,
2013-10-17 19:22:00,-999.0,-99.9,-100.00,East,100,6.0,6.0,-999,-99.99,,,-99.99,,2013-10-18 03:22:00,
2013-10-17 19:35:00,-999.0,-99.9,-100.00,East,84,6.0,7.0,-999,-99.99,,,-99.99,,2013-10-18 03:35:00,
2013-10-17 19:44:00,-999.0,-99.9,-100.00,ESE,106,4.0,-1.0,-999,-99.99,,,-99.99,,2013-10-18 03:44:00,
2013-10-17 19:55:00,-999.0,-99.9,-100.00,ESE,109,4.0,4.0,-999,-99.99,,,-99.99,,2013-10-18 03:55:00,
2013-10-17 20:05:00,-999.0,-99.9,-100.00,East,100,5.0,5.0,-999,-99.99,,,-99.99,,2013-10-18 04:05:00,
2013-10-17 20:14:00,-999.0,-99.9,-100.00,ESE,106,5.0,5.0,-999,-99.99,,,-99.99,,2013-10-18 04:14:00,
2013-10-17 20:24:00,-999.0,-99.9,-100.00,East,80,4.0,7.0,-999,-99.99,,,-99.99,,2013-10-18 04:24:00,
2013-10-17 20:34:00,-999.0,-99.9,-100.00,East,95,4.0,6.0,-999,-99.99,,,-99.99,,2013-10-18 04:34:00,
2013-10-17 20:44:00,-999.0,-99.9,-100.00,East,100,6.0,8.0,-999,-99.99,,,-99.99,,2013-10-18 04:44:00,
2013-10-17 20:54:00,-999.0,-99.9,-100.00,ESE,107,6.0,6.0,-999,-99.99,,,-99.99,,2013-10-18 04:54:00,
2013-10-17 21:03:00,-999.0,-99.9,-100.00,ESE,122,6.0,7.0,-999,-99.99,,,-99.99,,2013-10-18 05:03:00,
2013-10-17 21:13:00,-999.0,-99.9,-100.00,ESE,121,7.0,7.0,-999,-99.99,,,-99.99,,2013-10-18 05:13:00,
2013-10-17 21:23:00,-999.0,-99.9,-100.00,ESE,118,7.0,8.0,-999,-99.99,,,-99.99,,2013-10-18 05:23:00,
2013-10-17 21:34:00,-999.0,-99.9,-100.00,ESE,123,7.0,8.0,-999,-99.99,,,-99.99,,2013-10-18 05:34:00,
2013-10-17 21:43:00,-999.0,-99.9,-100.00,ESE,118,8.0,9.0,-999,-99.99,,,-99.99,,2013-10-18 05:43:00,
2013-10-17 21:52:00,-999.0,-99.9,-100.00,ESE,122,8.0,8.0,-999,-99.99,,,-99.99,,2013-10-18 05:52:00,
2013-10-17 22:02:00,-999.0,-99.9,-100.00,ESE,114,7.0,7.0,-999,-99.99,,,-99.99,,2013-10-18 06:02:00,
2013-10-17 22:12:00,-999.0,-99.9,-100.00,ESE,116,7.0,9.0,-999,-99.99,,,-99.99,,2013-10-18 06:12:00,
2013-10-17 22:22:00,-999.0,-99.9,-100.00,ESE,119,9.0,9.0,-999,-99.99,,,-99.99,,2013-10-18 06:22:00,
2013-10-17 22:33:00,-999.0,-99.9,-100.00,ESE,114,7.0,8.0,-999,-99.99,,,-99.99,,2013-10-18 06:33:00,
2013-10-17 22:42:00,-999.0,-99.9,-100.00,ESE,115,7.0,7.0,-999,-99.99,,,-99.99,,2013-10-18 06:42:00,
2013-10-17 22:52:00,-999.0,-99.9,-100.00,East,95,7.0,7.0,-999,-99.99,,,-99.99,,2013-10-18 06:52:00,
2013-10-17 23:02:00,-999.0,-99.9,-100.00,ESE,103,6.0,8.0,-999,-99.99,,,-99.99,,2013-10-18 07:02:00,
2013-10-17 23:12:00,-999.0,-99.9,-100.00,SE,139,5.0,7.0,-999,-99.99,,,-99.99,,2013-10-18 07:12:00,
2013-10-17 23:22:00,-999.0,-99.9,-100.00,ESE,119,7.0,7.0,-999,-99.99,,,-99.99,,2013-10-18 07:22:00,
2013-10-17 23:32:00,-999.0,-99.9,-100.00,SE,127,8.0,8.0,-999,-99.99,,,-99.99,,2013-10-18 07:32:00,
2013-10-17 23:42:00,-999.0,-99.9,-100.00,SE,133,5.0,6.0,-999,-99.99,,,-99.99,,2013-10-18 07:42:00,
2013-10-17 23:52:00,-999.0,-99.9,-100.00,ESE,107,6.0,7.0,-999,-99.99,,,-99.99,,2013-10-18 07:52:00,